BLI weather

Bellingham International Airport
Bellingham, Washington, United States

Public forecast

Using degrees Fahrenheit for public forecast. Weather courtesy of forecast.io.

Current aviation weather report (METAR) for Bellingham International Airport

Retrieved 2019/11/19 10:53 UTC (49 minutes ago):

KBLI 191053Z AUTO 35003KT 10SM -RA BKN019 OVC033 09/07 A2971 RMK AO2 SLP066 P0002 T00940072

Aviation forecast (TAF) for Bellingham International Airport

Retrieved 2019/11/19 06:42 UTC (5 hours ago):

TAF KBLI 190540Z 1906/2006 02007KT P6SM -RA OVC025 TEMPO 1906/1908 5SM -RA BR FM191600 32008KT P6SM VCSH BKN020 BKN040 FM192000 35010KT P6SM SCT025 BKN050 FM192200 36010KT P6SM SKC